Time;durP1;ratioP1;P1;durP2;ratioP2;P2;SDS_P1;SDS_P2;PMS_P1;PMS_P2;Temp;Humidity;BMP_temperature;BMP_pressure;BME280_temperature;BME280_humidity;BME280_pressure;Samples;Min_cycle;Max_cycle;Signal;HPM_P1;HPM_P2
2024/04/06 00:00:09;;;;;;;;;;;;;;;20.26;54.21;100814.69;2048393;28;6101;-68
2024/04/06 00:01:10;;;;;;;;;;;;;;;20.24;54.11;100818.22;2061562;28;2387;-68
2024/04/06 00:02:10;;;;;;;;;;;;;;;20.25;54.42;100811.09;2059548;28;2111;-68
2024/04/06 00:03:11;;;;;;;;;;;;;;;20.25;54.35;100813.97;2059712;28;2138;-68
2024/04/06 00:04:11;;;;;;;;;;;;;;;20.25;54.18;100819.72;2054529;28;1678;-67
2024/04/06 00:05:12;;;;;;;;;;;;;;;20.26;54.15;100814.69;2055166;28;1709;-67
2024/04/06 00:06:13;;;;;;;;;;;;;;;20.26;54.17;100811.81;2067576;28;2164;-67
2024/04/06 00:07:13;;;;;;;;;;;;;;;20.25;54.18;100818.97;2065412;28;2439;-68
2024/04/06 00:08:13;;;;;;;;;;;;;;;20.24;54.19;100818.22;2054630;28;1616;-70
2024/04/06 00:09:14;;;;;;;;;;;;;;;20.24;54.14;100811.72;2058809;28;2377;-66
2024/04/06 00:10:14;;;;;;;;;;;;;;;20.24;54.49;100818.22;2059910;28;2215;-65
2024/04/06 00:11:15;;;;;;;;;;;;;;;20.24;54.37;100811.72;2053350;28;2097;-66
2024/04/06 00:12:15;;;;;;;;;;;;;;;20.25;54.36;100818.97;2050537;28;2588;-66
2024/04/06 00:13:16;;;;;;;;;;;;;;;20.25;54.39;100818.97;2060159;28;2357;-66
2024/04/06 00:14:19;;;;;;;;;;;;;;;20.25;54.12;100824.72;2066280;28;1628;-66
2024/04/06 00:15:19;;;;;;;;;;;;;;;20.24;54.28;100820.34;2058239;28;2095;-65
2024/04/06 00:16:19;;;;;;;;;;;;;;;20.24;54.47;100821.09;2052991;28;2247;-66
2024/04/06 00:17:21;;;;;;;;;;;;;;;20.23;54.24;100818.88;2057586;28;2122;-66
2024/04/06 00:18:21;;;;;;;;;;;;;;;20.23;54.39;100821.75;2057166;28;1669;-66
2024/04/06 00:19:22;;;;;;;;;;;;;;;20.24;54.48;100817.47;2049983;28;1695;-66
2024/04/06 00:20:22;;;;;;;;;;;;;;;20.23;54.34;100816.75;2056385;28;2075;-66
2024/04/06 00:21:22;;;;;;;;;;;;;;;20.22;54.38;100820.25;2060986;28;1805;-66
2024/04/06 00:22:23;;;;;;;;;;;;;;;20.23;54.34;100821.75;2052831;28;2552;-66
2024/04/06 00:23:23;;;;;;;;;;;;;;;20.24;54.43;100811.72;2058125;28;2454;-65
2024/04/06 00:24:24;;;;;;;;;;;;;;;20.23;54.45;100822.50;2056597;28;2076;-66
2024/04/06 00:25:24;;;;;;;;;;;;;;;20.22;54.38;100809.50;2057195;28;2663;-66
2024/04/06 00:26:24;;;;;;;;;;;;;;;20.22;54.19;100821.00;2055554;28;2358;-66
2024/04/06 00:27:25;;;;;;;;;;;;;;;20.22;54.43;100814.50;2059444;28;2084;-65
2024/04/06 00:28:26;;;;;;;;;;;;;;;20.22;54.47;100814.50;2041450;29;1820;-66
2024/04/06 00:29:26;;;;;;;;;;;;;;;20.22;54.21;100806.63;2054584;28;1667;-66
2024/04/06 00:30:27;;;;;;;;;;;;;;;20.22;54.46;100821.00;2056707;28;6555;-66
2024/04/06 00:31:27;;;;;;;;;;;;;;;20.23;54.43;100821.75;2050224;28;2101;-65
2024/04/06 00:32:27;;;;;;;;;;;;;;;20.23;54.43;100821.75;2051744;28;2682;-66
2024/04/06 00:33:28;;;;;;;;;;;;;;;20.21;54.24;100810.16;2070823;28;2449;-66
2024/04/06 00:34:28;;;;;;;;;;;;;;;20.22;54.41;100817.38;2068235;28;1778;-66
2024/04/06 00:35:29;;;;;;;;;;;;;;;20.22;54.44;100820.25;2051914;28;2231;-66
2024/04/06 00:36:29;;;;;;;;;;;;;;;20.21;54.34;100816.66;2052185;28;2148;-66
2024/04/06 00:37:29;;;;;;;;;;;;;;;20.23;54.26;100821.75;2050875;28;1936;-66
2024/04/06 00:38:30;;;;;;;;;;;;;;;20.22;54.29;100820.25;2063168;28;2003;-66
2024/04/06 00:39:30;;;;;;;;;;;;;;;20.22;54.52;100820.25;2056530;28;2115;-66
2024/04/06 00:40:31;;;;;;;;;;;;;;;20.22;54.40;100823.13;2048385;28;2369;-66
2024/04/06 00:41:31;;;;;;;;;;;;;;;20.21;54.48;100825.28;2067528;28;2521;-66
2024/04/06 00:42:31;;;;;;;;;;;;;;;20.22;54.41;100820.25;2065080;28;2532;-66
2024/04/06 00:43:32;;;;;;;;;;;;;;;20.21;54.49;100821.66;2056863;28;2546;-65
2024/04/06 00:44:33;;;;;;;;;;;;;;;20.20;54.32;100828.78;2050504;28;1930;-66
2024/04/06 00:45:33;;;;;;;;;;;;;;;20.20;54.42;100825.91;2065804;28;2102;-66
2024/04/06 00:46:33;;;;;;;;;;;;;;;20.20;54.48;100825.91;2069381;28;2658;-66
2024/04/06 00:47:34;;;;;;;;;;;;;;;20.21;54.28;100833.16;2052149;28;1877;-66
2024/04/06 00:48:35;;;;;;;;;;;;;;;20.21;54.52;100821.66;2051832;28;1680;-66
2024/04/06 00:49:35;;;;;;;;;;;;;;;20.20;54.44;100835.31;2062060;28;2166;-66
2024/04/06 00:50:36;;;;;;;;;;;;;;;20.20;54.53;100823.78;2059544;28;2084;-66
2024/04/06 00:51:36;;;;;;;;;;;;;;;20.20;54.32;100828.78;2051610;28;1667;-66
2024/04/06 00:52:37;;;;;;;;;;;;;;;20.22;54.50;100826.00;2049567;28;2589;-66
2024/04/06 00:53:38;;;;;;;;;;;;;;;20.21;54.50;100824.53;2052183;28;2426;-66
2024/04/06 00:54:38;;;;;;;;;;;;;;;20.20;54.52;100840.28;2058912;28;2091;-66
2024/04/06 00:55:38;;;;;;;;;;;;;;;20.20;54.38;100829.56;2056690;28;2645;-66
2024/04/06 00:56:39;;;;;;;;;;;;;;;20.20;54.44;100831.66;2050081;28;2415;-66
2024/04/06 00:57:39;;;;;;;;;;;;;;;20.21;54.49;100841.78;2061390;28;1775;-66
2024/04/06 00:58:41;;;;;;;;;;;;;;;20.19;54.50;100839.53;2056589;28;2071;-66
2024/04/06 00:59:42;;;;;;;;;;;;;;;20.19;54.46;100839.53;2059270;28;2116;-66
2024/04/06 01:00:43;;;;;;;;;;;;;;;20.19;54.46;100838.81;2056395;28;6188;-66
2024/04/06 01:01:44;;;;;;;;;;;;;;;20.20;54.49;100846.03;2058977;28;2432;-66
2024/04/06 01:02:44;;;;;;;;;;;;;;;20.19;54.54;100844.56;2060252;28;2555;-66
2024/04/06 01:03:45;;;;;;;;;;;;;;;20.19;54.50;100845.31;2056946;28;2596;-66
2024/04/06 01:04:45;;;;;;;;;;;;;;;20.18;54.52;100848.81;2065128;28;2153;-66
2024/04/06 01:05:46;;;;;;;;;;;;;;;20.20;54.41;100846.03;2066881;28;1831;-66
2024/04/06 01:06:46;;;;;;;;;;;;;;;20.18;54.34;100843.81;2056834;28;1879;-66
2024/04/06 01:07:47;;;;;;;;;;;;;;;20.19;54.50;100844.56;2061220;28;2184;-66
2024/04/06 01:08:47;;;;;;;;;;;;;;;20.19;54.56;100844.56;2057423;28;3612;-66
2024/04/06 01:09:47;;;;;;;;;;;;;;;20.18;54.25;100849.56;2060842;28;2664;-66
2024/04/06 01:10:48;;;;;;;;;;;;;;;20.19;54.32;100847.44;2058865;28;2201;-66
2024/04/06 01:11:48;;;;;;;;;;;;;;;20.19;54.47;100850.31;2053684;28;1663;-66
2024/04/06 01:12:49;;;;;;;;;;;;;;;20.19;54.33;100847.44;2048621;28;2325;-66
2024/04/06 01:13:49;;;;;;;;;;;;;;;20.18;54.33;100851.69;2066013;28;2503;-66
2024/04/06 01:14:50;;;;;;;;;;;;;;;20.18;54.49;100848.81;2067152;28;2208;-66
2024/04/06 01:15:50;;;;;;;;;;;;;;;20.18;54.43;100854.56;2049090;28;2093;-66
2024/04/06 01:16:50;;;;;;;;;;;;;;;20.18;54.37;100855.31;2059138;28;1849;-66
2024/04/06 01:17:53;;;;;;;;;;;;;;;20.18;54.51;100854.56;2060806;28;1785;-66
2024/04/06 01:18:53;;;;;;;;;;;;;;;20.18;54.52;100849.56;2054112;28;1902;-66
2024/04/06 01:19:53;;;;;;;;;;;;;;;20.19;54.50;100858.94;2050708;28;2144;-66
2024/04/06 01:20:57;;;;;;;;;;;;;;;20.18;54.50;100868.94;2065348;28;1882;-66
2024/04/06 01:21:57;;;;;;;;;;;;;;;20.18;54.50;100866.81;2066944;28;2602;-66
2024/04/06 01:22:57;;;;;;;;;;;;;;;20.18;54.36;100866.06;2060724;28;2467;-66
2024/04/06 01:24:01;;;;;;;;;;;;;;;20.17;54.50;100871.06;2058752;28;2181;-66
2024/04/06 01:25:04;;;;;;;;;;;;;;;20.18;54.52;100866.06;2052220;28;2001;-66
2024/04/06 01:26:04;;;;;;;;;;;;;;;20.17;54.46;100871.06;2066351;28;1913;-65
2024/04/06 01:27:05;;;;;;;;;;;;;;;20.17;54.53;100870.34;2065683;28;2138;-66
2024/04/06 01:28:05;;;;;;;;;;;;;;;20.18;54.45;100877.56;2049713;28;1937;-66
2024/04/06 01:29:06;;;;;;;;;;;;;;;20.17;54.29;100871.06;2057204;28;1789;-66
2024/04/06 01:30:07;;;;;;;;;;;;;;;20.18;54.44;100871.81;2055158;28;6476;-66
2024/04/06 01:31:07;;;;;;;;;;;;;;;20.16;54.52;100869.59;2051815;28;2479;-65
2024/04/06 01:32:07;;;;;;;;;;;;;;;20.17;54.43;100873.22;2051163;28;2534;-65
2024/04/06 01:33:08;;;;;;;;;;;;;;;20.16;54.36;100874.59;2051092;28;2919;-65
2024/04/06 01:34:08;;;;;;;;;;;;;;;20.17;54.41;100881.84;2059772;28;2751;-66
2024/04/06 01:35:09;;;;;;;;;;;;;;;20.17;54.44;100882.56;2060890;28;2198;-66
2024/04/06 01:36:09;;;;;;;;;;;;;;;20.17;54.37;100887.59;2062150;28;1918;-66
2024/04/06 01:37:10;;;;;;;;;;;;;;;20.17;54.44;100887.59;2066938;28;2075;-66
2024/04/06 01:38:10;;;;;;;;;;;;;;;20.17;54.57;100887.59;2057373;28;2516;-66
2024/04/06 01:39:11;;;;;;;;;;;;;;;20.17;54.29;100887.59;2052523;28;2501;-66
2024/04/06 01:40:11;;;;;;;;;;;;;;;20.17;54.54;100887.59;2066821;28;2516;-65
2024/04/06 01:41:12;;;;;;;;;;;;;;;20.16;54.46;100883.22;2068730;28;1987;-66
2024/04/06 01:42:12;;;;;;;;;;;;;;;20.16;54.42;100894.72;2049467;28;2669;-66
2024/04/06 01:43:13;;;;;;;;;;;;;;;20.15;54.62;100896.84;2061165;28;2123;-66
2024/04/06 01:44:13;;;;;;;;;;;;;;;20.16;54.33;100891.84;2058874;28;2550;-66
2024/04/06 01:45:13;;;;;;;;;;;;;;;20.16;54.56;100900.47;2053068;28;2422;-65
2024/04/06 01:46:14;;;;;;;;;;;;;;;20.15;54.52;100902.59;2055926;28;1876;-66
2024/04/06 01:47:14;;;;;;;;;;;;;;;20.15;54.54;100896.13;2058356;28;2076;-66
2024/04/06 01:48:14;;;;;;;;;;;;;;;20.15;54.53;100901.88;2053711;28;1627;-65
2024/04/06 01:49:15;;;;;;;;;;;;;;;20.13;54.55;100904.63;2049905;28;2207;-66
2024/04/06 01:50:15;;;;;;;;;;;;;;;20.13;54.60;100898.88;2061420;28;2571;-66
2024/04/06 01:51:16;;;;;;;;;;;;;;;20.13;54.69;100904.63;2057241;28;1657;-65
2024/04/06 01:52:16;;;;;;;;;;;;;;;20.12;54.72;100897.41;2050830;28;2584;-66
2024/04/06 01:53:16;;;;;;;;;;;;;;;20.12;54.54;100898.16;2051822;28;2407;-66
2024/04/06 01:54:17;;;;;;;;;;;;;;;20.13;54.58;100893.13;2050473;28;2000;-66
2024/04/06 01:55:17;;;;;;;;;;;;;;;20.13;54.65;100893.13;2054807;28;2055;-66
2024/04/06 01:56:18;;;;;;;;;;;;;;;20.11;54.43;100895.91;2057234;28;2100;-66
2024/04/06 01:57:18;;;;;;;;;;;;;;;20.11;54.63;100895.91;2072355;28;2357;-66
2024/04/06 01:58:19;;;;;;;;;;;;;;;20.10;54.56;100895.19;2072918;28;2132;-66
2024/04/06 01:59:19;;;;;;;;;;;;;;;20.09;54.51;100902.31;2055368;28;2150;-66
2024/04/06 02:00:19;;;;;;;;;;;;;;;20.08;54.60;100898.69;2050998;28;6135;-66
2024/04/06 02:01:20;;;;;;;;;;;;;;;20.09;54.65;100894.44;2058859;28;2363;-65
2024/04/06 02:02:20;;;;;;;;;;;;;;;20.09;54.46;100900.19;2057628;28;2948;-66
2024/04/06 02:03:20;;;;;;;;;;;;;;;20.07;54.65;100891.47;2049048;28;2011;-66
2024/04/06 02:04:21;;;;;;;;;;;;;;;20.09;54.57;100896.59;2053047;28;2138;-66
2024/04/06 02:05:21;;;;;;;;;;;;;;;20.09;54.70;100902.31;2054017;28;1762;-66
2024/04/06 02:06:22;;;;;;;;;;;;;;;20.10;54.58;100900.94;2057893;28;1916;-66
2024/04/06 02:07:22;;;;;;;;;;;;;;;20.08;54.68;100900.81;2059426;28;1828;-66
2024/04/06 02:08:23;;;;;;;;;;;;;;;20.07;54.68;100902.97;2057941;28;2359;-66
2024/04/06 02:09:23;;;;;;;;;;;;;;;20.08;54.53;100913.06;2059597;28;2525;-65
2024/04/06 02:10:24;;;;;;;;;;;;;;;20.07;54.51;100910.84;2059631;28;2522;-65
2024/04/06 02:11:24;;;;;;;;;;;;;;;20.07;54.73;100911.59;2056421;28;2291;-65
2024/04/06 02:12:25;;;;;;;;;;;;;;;20.08;54.59;100915.19;2052086;28;2829;-66
2024/04/06 02:13:25;;;;;;;;;;;;;;;20.07;54.68;100908.72;2049543;28;2864;-66
2024/04/06 02:14:25;;;;;;;;;;;;;;;20.09;54.74;100911.69;2064520;28;2642;-66
2024/04/06 02:15:26;;;;;;;;;;;;;;;20.08;54.63;100904.44;2068624;28;2514;-65
2024/04/06 02:16:26;;;;;;;;;;;;;;;20.08;54.69;100901.56;2053636;28;1662;-66
2024/04/06 02:17:28;;;;;;;;;;;;;;;20.08;54.67;100909.44;2057338;28;1685;-66
2024/04/06 02:18:28;;;;;;;;;;;;;;;20.07;54.68;100908.72;2057479;28;1880;-65
2024/04/06 02:19:29;;;;;;;;;;;;;;;20.06;54.61;100901.47;2055104;28;2197;-66
2024/04/06 02:20:29;;;;;;;;;;;;;;;20.07;54.67;100907.97;2056981;28;1702;-66
2024/04/06 02:21:30;;;;;;;;;;;;;;;20.06;54.64;100898.59;2064613;28;2141;-66
2024/04/06 02:22:30;;;;;;;;;;;;;;;20.06;54.63;100903.59;2064646;28;2647;-66
2024/04/06 02:23:31;;;;;;;;;;;;;;;20.06;54.57;100901.47;2050928;28;2514;-66
2024/04/06 02:24:31;;;;;;;;;;;;;;;20.05;54.56;100900.00;2053554;28;2478;-66
2024/04/06 02:25:32;;;;;;;;;;;;;;;20.06;54.71;100907.22;2052727;28;2395;-66
2024/04/06 02:26:32;;;;;;;;;;;;;;;20.05;54.59;100905.75;2068109;28;1588;-66
2024/04/06 02:27:33;;;;;;;;;;;;;;;20.05;54.54;100905.75;2069210;28;1664;-66
2024/04/06 02:28:33;;;;;;;;;;;;;;;20.06;54.51;100906.47;2052367;28;1733;-66
2024/04/06 02:29:34;;;;;;;;;;;;;;;20.06;54.37;100904.34;2048867;28;2089;-66
2024/04/06 02:30:37;;;;;;;;;;;;;;;20.06;54.47;100904.34;2055096;28;6143;-65
2024/04/06 02:31:37;;;;;;;;;;;;;;;20.05;54.68;100905.75;2060399;28;2586;-66
2024/04/06 02:32:38;;;;;;;;;;;;;;;20.04;54.63;100904.25;2050751;28;2068;-65
2024/04/06 02:33:38;;;;;;;;;;;;;;;20.05;54.53;100894.25;2064310;28;1744;-66
2024/04/06 02:34:38;;;;;;;;;;;;;;;20.04;54.66;100898.50;2068834;28;2145;-66
2024/04/06 02:35:39;;;;;;;;;;;;;;;20.06;54.61;100900.72;2059262;28;2040;-66
2024/04/06 02:36:39;;;;;;;;;;;;;;;20.04;54.63;100898.50;2064677;28;2249;-66
2024/04/06 02:37:40;;;;;;;;;;;;;;;20.05;54.80;100899.25;2059530;28;2409;-66
2024/04/06 02:38:42;;;;;;;;;;;;;;;20.05;54.52;100899.25;2060239;28;2491;-66
2024/04/06 02:39:43;;;;;;;;;;;;;;;20.05;54.70;100905.00;2064380;28;1709;-66
2024/04/06 02:40:43;;;;;;;;;;;;;;;20.05;54.66;100905.00;2058646;28;1927;-66
2024/04/06 02:41:43;;;;;;;;;;;;;;;20.05;54.68;100905.75;2057656;28;1613;-66
2024/04/06 02:42:44;;;;;;;;;;;;;;;20.04;54.52;100903.50;2058062;28;2166;-66
2024/04/06 02:43:44;;;;;;;;;;;;;;;20.05;54.71;100910.75;2064104;28;1970;-66
2024/04/06 02:44:45;;;;;;;;;;;;;;;20.04;54.47;100906.38;2065468;28;1746;-66
2024/04/06 02:45:45;;;;;;;;;;;;;;;20.05;54.58;100900.00;2055263;28;2116;-66
2024/04/06 02:46:46;;;;;;;;;;;;;;;20.05;54.62;100905.00;2056334;28;1658;-66
2024/04/06 02:47:46;;;;;;;;;;;;;;;20.05;54.44;100896.38;2051290;28;2490;-66
2024/04/06 02:48:48;;;;;;;;;;;;;;;20.04;54.56;100904.25;2066254;28;2384;-66
2024/04/06 02:49:48;;;;;;;;;;;;;;;20.06;54.51;100897.84;2065708;28;2320;-66
2024/04/06 02:50:49;;;;;;;;;;;;;;;20.06;54.42;100906.47;2048820;28;1877;-66
2024/04/06 02:51:49;;;;;;;;;;;;;;;20.06;54.72;100903.59;2055007;28;1848;-65
2024/04/06 02:52:49;;;;;;;;;;;;;;;20.06;54.59;100907.22;2055378;28;2274;-66
2024/04/06 02:53:50;;;;;;;;;;;;;;;20.06;54.50;100903.59;2057225;28;2360;-66
2024/04/06 02:54:50;;;;;;;;;;;;;;;20.05;54.45;100905.75;2058531;28;1847;-66
2024/04/06 02:55:51;;;;;;;;;;;;;;;20.06;54.66;100907.22;2056323;28;2285;-66
2024/04/06 02:56:51;;;;;;;;;;;;;;;20.07;54.70;100907.97;2057698;28;1933;-66
2024/04/06 02:57:52;;;;;;;;;;;;;;;20.06;54.43;100909.34;2049928;28;2600;-66
2024/04/06 02:58:52;;;;;;;;;;;;;;;20.05;54.70;100902.88;2067373;28;1711;-66
2024/04/06 02:59:52;;;;;;;;;;;;;;;20.05;54.38;100902.13;2074111;28;2062;-66
2024/04/06 03:00:53;;;;;;;;;;;;;;;20.06;54.37;100912.97;2054774;28;6261;-66
2024/04/06 03:01:53;;;;;;;;;;;;;;;20.05;54.56;100914.38;2055700;28;1872;-66
2024/04/06 03:02:54;;;;;;;;;;;;;;;20.05;54.58;100917.25;2066175;28;2631;-65
2024/04/06 03:03:54;;;;;;;;;;;;;;;20.07;54.61;100913.72;2063324;28;2321;-66
2024/04/06 03:04:54;;;;;;;;;;;;;;;20.07;54.42;100919.47;2054910;28;2499;-66
2024/04/06 03:05:55;;;;;;;;;;;;;;;20.07;54.52;100913.72;2054088;28;2099;-66
2024/04/06 03:06:55;;;;;;;;;;;;;;;20.07;54.62;100920.22;2067275;28;2566;-66
2024/04/06 03:07:56;;;;;;;;;;;;;;;20.08;54.58;100920.94;2063586;28;2359;-66
2024/04/06 03:08:56;;;;;;;;;;;;;;;20.07;54.46;100920.22;2057934;28;2940;-66
2024/04/06 03:09:57;;;;;;;;;;;;;;;20.08;54.60;100921.69;2069004;28;2434;-66
2024/04/06 03:10:57;;;;;;;;;;;;;;;20.08;54.53;100932.44;2064539;28;1854;-66
2024/04/06 03:11:57;;;;;;;;;;;;;;;20.08;54.47;100932.44;2051838;28;1759;-66
2024/04/06 03:12:58;;;;;;;;;;;;;;;20.08;54.49;100933.19;2056894;28;2209;-65
2024/04/06 03:13:59;;;;;;;;;;;;;;;20.09;54.50;100928.94;2059097;28;1924;-65
2024/04/06 03:14:59;;;;;;;;;;;;;;;20.08;54.42;100933.19;2054950;28;2399;-66
2024/04/06 03:16:00;;;;;;;;;;;;;;;20.11;54.32;100930.41;2064040;28;2548;-66
2024/04/06 03:17:00;;;;;;;;;;;;;;;20.08;54.42;100930.31;2051087;28;1722;-66
2024/04/06 03:18:00;;;;;;;;;;;;;;;20.09;54.53;100931.06;2057010;28;1869;-66
2024/04/06 03:19:01;;;;;;;;;;;;;;;20.09;54.45;100920.31;2055160;28;2139;-66
2024/04/06 03:20:04;;;;;;;;;;;;;;;20.11;54.41;100924.66;2061003;28;2179;-66
2024/04/06 03:21:04;;;;;;;;;;;;;;;20.11;54.34;100921.78;2058187;28;2104;-66
2024/04/06 03:22:06;;;;;;;;;;;;;;;20.12;54.13;100920.41;2057128;28;1643;-66
2024/04/06 03:23:06;;;;;;;;;;;;;;;20.12;54.33;100914.66;2062515;28;2716;-66
2024/04/06 03:24:07;;;;;;;;;;;;;;;20.13;54.15;100921.88;2066078;28;2910;-66
2024/04/06 03:25:07;;;;;;;;;;;;;;;20.13;54.18;100922.63;2049161;28;2474;-66
2024/04/06 03:26:07;;;;;;;;;;;;;;;20.13;53.90;100922.63;2055542;28;2555;-66
2024/04/06 03:27:08;;;;;;;;;;;;;;;20.14;54.12;100929.88;2060186;28;2556;-66
2024/04/06 03:28:09;;;;;;;;;;;;;;;20.15;54.10;100919.13;2052500;28;2111;-66
2024/04/06 03:29:10;;;;;;;;;;;;;;;20.14;53.94;100923.41;2047004;28;1871;-66
2024/04/06 03:30:10;;;;;;;;;;;;;;;20.14;54.12;100917.63;2048862;28;6799;-65
2024/04/06 03:31:10;;;;;;;;;;;;;;;20.15;54.26;100922.72;2056963;28;2531;-65
2024/04/06 03:32:11;;;;;;;;;;;;;;;20.15;54.15;100924.88;2072923;28;2143;-66
2024/04/06 03:33:11;;;;;;;;;;;;;;;20.14;54.16;100920.50;2062376;28;1914;-66
2024/04/06 03:34:12;;;;;;;;;;;;;;;20.15;54.04;100925.59;2054687;28;2465;-66
2024/04/06 03:35:12;;;;;;;;;;;;;;;20.15;54.33;100924.88;2059703;28;2538;-66
2024/04/06 03:36:12;;;;;;;;;;;;;;;20.14;54.29;100923.41;2058238;28;2380;-66
2024/04/06 03:37:13;;;;;;;;;;;;;;;20.15;54.27;100919.13;2055526;28;2207;-66
2024/04/06 03:38:13;;;;;;;;;;;;;;;20.15;54.34;100930.63;2045990;28;2099;-66
2024/04/06 03:39:14;;;;;;;;;;;;;;;20.14;54.27;100920.50;2047934;28;2426;-66
2024/04/06 03:40:15;;;;;;;;;;;;;;;20.14;54.22;100927.00;2052660;28;2024;-66
2024/04/06 03:41:15;;;;;;;;;;;;;;;20.14;54.44;100923.41;2050634;28;1751;-65
2024/04/06 03:42:15;;;;;;;;;;;;;;;20.15;54.47;100930.63;2060268;28;2091;-66
2024/04/06 03:43:16;;;;;;;;;;;;;;;20.14;54.30;100923.41;2052492;28;2116;-66
2024/04/06 03:44:16;;;;;;;;;;;;;;;20.14;54.42;100929.16;2056995;28;2488;-66
2024/04/06 03:45:17;;;;;;;;;;;;;;;20.15;54.42;100927.75;2055506;28;2130;-66
2024/04/06 03:46:17;;;;;;;;;;;;;;;20.15;54.48;100936.38;2058696;28;2701;-66
2024/04/06 03:47:17;;;;;;;;;;;;;;;20.14;54.52;100932.00;2054694;28;2385;-66
2024/04/06 03:48:18;;;;;;;;;;;;;;;20.13;54.50;100927.63;2072887;28;1642;-66
2024/04/06 03:49:18;;;;;;;;;;;;;;;20.13;54.64;100934.13;2066413;28;2166;-66
2024/04/06 03:50:20;;;;;;;;;;;;;;;20.13;54.67;100928.38;2057639;28;2003;-66
2024/04/06 03:51:20;;;;;;;;;;;;;;;20.12;54.64;100937.66;2060578;28;1781;-66
2024/04/06 03:52:20;;;;;;;;;;;;;;;20.13;54.65;100927.63;2059515;28;1860;-66
2024/04/06 03:53:32;;;;;;;;;;;;;;;20.13;54.77;100933.38;2063075;28;2612;-66
2024/04/06 03:54:32;;;;;;;;;;;;;;;20.11;54.52;100922.53;2063569;28;2439;-66
2024/04/06 03:55:33;;;;;;;;;;;;;;;20.12;54.67;100924.03;2049521;28;1757;-66
2024/04/06 03:56:34;;;;;;;;;;;;;;;20.12;54.65;100926.16;2054744;28;2111;-66
2024/04/06 03:57:34;;;;;;;;;;;;;;;20.11;54.70;100922.53;2053689;28;2025;-66
2024/04/06 03:58:35;;;;;;;;;;;;;;;20.11;54.49;100924.66;2054565;28;2076;-66
2024/04/06 03:59:35;;;;;;;;;;;;;;;20.11;54.54;100927.53;2067689;28;1626;-66
2024/04/06 04:00:36;;;;;;;;;;;;;;;20.11;54.57;100924.66;2065688;28;6290;-66
2024/04/06 04:01:36;;;;;;;;;;;;;;;20.11;54.59;100921.78;2053700;28;2426;-65
2024/04/06 04:02:37;;;;;;;;;;;;;;;20.11;54.66;100916.78;2059582;28;2589;-66
2024/04/06 04:03:38;;;;;;;;;;;;;;;20.11;54.54;100911.03;2062106;28;1974;-65
2024/04/06 04:04:38;;;;;;;;;;;;;;;20.11;54.43;100927.53;2052635;28;3438;-66
2024/04/06 04:05:39;;;;;;;;;;;;;;;20.11;54.73;100913.16;2049942;28;2489;-66
2024/04/06 04:06:39;;;;;;;;;;;;;;;20.10;54.73;100923.94;2051979;28;2097;-66
2024/04/06 04:07:39;;;;;;;;;;;;;;;20.09;54.76;100920.31;2059991;28;1795;-66
2024/04/06 04:08:40;;;;;;;;;;;;;;;20.10;54.64;100923.94;2059049;28;2206;-66
2024/04/06 04:09:40;;;;;;;;;;;;;;;20.09;54.81;100920.31;2049712;28;2636;-65
2024/04/06 04:10:41;;;;;;;;;;;;;;;20.09;54.54;100920.31;2059144;28;2108;-66
2024/04/06 04:11:42;;;;;;;;;;;;;;;20.08;54.53;100920.94;2058103;28;1520;-66
2024/04/06 04:12:42;;;;;;;;;;;;;;;20.09;54.75;100928.19;2056785;28;2504;-66
2024/04/06 04:13:42;;;;;;;;;;;;;;;20.08;54.53;100924.56;2061796;28;1569;-66
2024/04/06 04:14:43;;;;;;;;;;;;;;;20.09;54.62;100928.19;2052514;28;2073;-66
2024/04/06 04:15:43;;;;;;;;;;;;;;;20.08;54.68;100927.44;2061893;28;2119;-66
2024/04/06 04:16:44;;;;;;;;;;;;;;;20.08;54.53;100927.44;2066612;28;1783;-66
2024/04/06 04:17:44;;;;;;;;;;;;;;;20.09;54.48;100926.06;2060664;28;2206;-66
2024/04/06 04:18:46;;;;;;;;;;;;;;;20.07;54.73;100925.97;2049625;28;2458;-66
2024/04/06 04:19:46;;;;;;;;;;;;;;;20.06;54.57;100921.59;2050146;28;2684;-66
2024/04/06 04:20:46;;;;;;;;;;;;;;;20.06;54.53;100930.22;2049592;28;1977;-65
2024/04/06 04:21:47;;;;;;;;;;;;;;;20.07;54.55;100931.72;2050596;28;1609;-66
2024/04/06 04:22:47;;;;;;;;;;;;;;;20.07;54.69;100931.72;2056775;28;1854;-66
2024/04/06 04:23:47;;;;;;;;;;;;;;;20.07;54.51;100928.84;2055527;28;2360;-65
2024/04/06 04:24:48;;;;;;;;;;;;;;;20.07;54.70;100928.84;2052055;28;1810;-66
2024/04/06 04:25:48;;;;;;;;;;;;;;;20.07;54.69;100923.09;2057860;28;2529;-66
2024/04/06 04:26:49;;;;;;;;;;;;;;;20.07;54.79;100930.97;2075211;28;2029;-66
2024/04/06 04:27:49;;;;;;;;;;;;;;;20.07;54.71;100931.72;2066075;28;1646;-66
2024/04/06 04:28:50;;;;;;;;;;;;;;;20.07;54.72;100930.97;2055219;28;1554;-66
2024/04/06 04:29:51;;;;;;;;;;;;;;;20.06;54.85;100941.72;2061454;28;2083;-65
2024/04/06 04:30:51;;;;;;;;;;;;;;;20.07;54.67;100934.59;2059985;28;6115;-66
2024/04/06 04:31:52;;;;;;;;;;;;;;;20.07;54.66;100940.34;2051554;28;1585;-66
2024/04/06 04:32:52;;;;;;;;;;;;;;;20.06;54.67;100933.09;2059205;28;1569;-66
2024/04/06 04:33:53;;;;;;;;;;;;;;;20.07;54.66;100942.47;2057058;28;1798;-66
2024/04/06 04:34:53;;;;;;;;;;;;;;;20.06;54.76;100938.84;2058033;28;2181;-66
2024/04/06 04:35:54;;;;;;;;;;;;;;;20.06;54.78;100941.72;2058039;28;2571;-66
2024/04/06 04:36:54;;;;;;;;;;;;;;;20.07;54.76;100939.59;2053954;28;2481;-66
2024/04/06 04:37:54;;;;;;;;;;;;;;;20.07;54.77;100939.59;2059511;28;1580;-66
2024/04/06 04:38:55;;;;;;;;;;;;;;;20.06;54.66;100935.22;2071480;28;2559;-66
2024/04/06 04:39:55;;;;;;;;;;;;;;;20.06;54.73;100938.09;2068797;28;2513;-66
2024/04/06 04:40:56;;;;;;;;;;;;;;;20.06;54.44;100944.59;2051021;28;2068;-66
2024/04/06 04:41:56;;;;;;;;;;;;;;;20.08;54.72;100932.44;2049160;28;1800;-66
2024/04/06 04:42:57;;;;;;;;;;;;;;;20.05;54.74;100928.72;2052602;28;2115;-65
2024/04/06 04:43:57;;;;;;;;;;;;;;;20.04;54.51;100935.88;2053866;28;2050;-66
2024/04/06 04:45:00;;;;;;;;;;;;;;;20.05;54.47;100934.47;2061035;28;2103;-66
2024/04/06 04:46:01;;;;;;;;;;;;;;;20.05;54.72;100940.22;2057085;28;2397;-65
2024/04/06 04:47:02;;;;;;;;;;;;;;;20.05;54.62;100940.22;2055666;28;2552;-66
2024/04/06 04:48:02;;;;;;;;;;;;;;;20.04;54.75;100933.00;2057323;28;2080;-66
2024/04/06 04:49:02;;;;;;;;;;;;;;;20.05;54.63;100934.47;2069444;28;1615;-66
2024/04/06 04:50:03;;;;;;;;;;;;;;;20.05;54.72;100934.47;2071513;28;1894;-66
2024/04/06 04:51:04;;;;;;;;;;;;;;;20.04;54.63;100935.88;2056788;28;1601;-66
2024/04/06 04:52:04;;;;;;;;;;;;;;;20.04;54.46;100933.00;2057803;28;2143;-66
2024/04/06 04:53:05;;;;;;;;;;;;;;;20.04;54.38;100938.75;2059528;28;1614;-66
2024/04/06 04:54:05;;;;;;;;;;;;;;;20.03;54.56;100945.88;2058373;28;2497;-66
2024/04/06 04:55:05;;;;;;;;;;;;;;;20.03;54.65;100937.25;2052392;28;2719;-66
2024/04/06 04:56:06;;;;;;;;;;;;;;;20.03;54.66;100943.00;2058295;28;2119;-66
2024/04/06 04:57:06;;;;;;;;;;;;;;;20.04;54.73;100943.75;2059101;28;2112;-66
2024/04/06 04:58:08;;;;;;;;;;;;;;;20.02;54.66;100947.28;2052104;28;2555;-66
2024/04/06 04:59:09;;;;;;;;;;;;;;;20.03;54.73;100948.03;2056342;28;2302;-66
2024/04/06 05:00:09;;;;;;;;;;;;;;;20.02;54.56;100946.50;2059565;28;6291;-66
2024/04/06 05:01:10;;;;;;;;;;;;;;;20.02;54.66;100950.16;2053596;28;2033;-66
2024/04/06 05:02:10;;;;;;;;;;;;;;;20.02;54.69;100953.03;2060005;28;2130;-65
2024/04/06 05:03:11;;;;;;;;;;;;;;;20.02;54.65;100955.91;2059743;28;2001;-65
2024/04/06 05:04:11;;;;;;;;;;;;;;;20.02;54.68;100958.78;2050660;28;2521;-66
2024/04/06 05:05:11;;;;;;;;;;;;;;;20.01;54.64;100960.16;2056455;28;2429;-66
2024/04/06 05:06:12;;;;;;;;;;;;;;;20.01;54.63;100957.28;2075537;28;2207;-66
2024/04/06 05:07:12;;;;;;;;;;;;;;;20.01;54.68;100965.91;2068120;28;2441;-66
2024/04/06 05:08:13;;;;;;;;;;;;;;;20.01;54.51;100960.16;2052102;28;2545;-66
2024/04/06 05:09:15;;;;;;;;;;;;;;;20.01;54.69;100957.28;2048614;28;2375;-66
2024/04/06 05:10:15;;;;;;;;;;;;;;;20.01;54.55;100957.28;2058494;28;2537;-66
2024/04/06 05:11:16;;;;;;;;;;;;;;;20.01;54.58;100965.91;2059377;28;1721;-65
2024/04/06 05:12:16;;;;;;;;;;;;;;;20.01;54.66;100963.03;2061234;28;2135;-66
2024/04/06 05:13:17;;;;;;;;;;;;;;;20.01;54.60;100957.28;2061323;28;1856;-66
2024/04/06 05:14:17;;;;;;;;;;;;;;;20.01;54.57;100956.53;2066591;28;2526;-66
2024/04/06 05:15:17;;;;;;;;;;;;;;;20.01;54.69;100956.53;2056681;28;2500;-66